Christine M Mcallister — WDB4780 — position and weather

sailwx.info

Track history (hours):
 
Tides and Currents Weather Stations Pressure Air Temp Water Temp Dewpoint Dewpoint Depression Visibility Wind Speed Wind Dir Waves Ship Positions

Christine M Mcallister

Owner: MC ALLISTER TOWING & TRANSPORTATION INC, NY, NY. More information available from US FCC via Universal Licensing System and Coast Guard Vessel Documentation Center.

Last reported at 2018-Feb-08 21:00 UTC. Time now 2018-Feb-24 11:57 UTC.
Position N 25°39' W 080°02'.
Warning: this ship's position is 15 days out of date.

; draft 6.2 m.

Type: Pollution control. MMSI: 362707956.

Date/timePositionNaut miles runAvg speedWind from/ knotsBaromVisibWave heightAir tempDewpointWater temp
2018-Feb-08 21:00N 25°39' W 080°02'4 8.1
2018-Feb-08 20:30N 25°43' W 080°03'13 8.8
2018-Feb-08 19:00N 25°56' W 080°04'4 8.6
2018-Feb-08 18:30N 26°00' W 080°04'4 8.4
2018-Feb-08 18:00N 26°04' W 080°03'4 8.4
2018-Feb-08 17:30N 26°08' W 080°02'4 9.0
2018-Feb-08 17:00N 26°13' W 080°02'42 8.4
2018-Feb-08 12:00N 26°55' W 079°60'4 8.2
2018-Feb-08 11:30N 26°59' W 080°00'  
2018-Feb-04 04:48N 27°02' W 079°59'2 6.9
2018-Feb-04 04:30N 26°60' W 079°59'4 7.3
2018-Feb-04 03:56N 26°56' W 079°59'3 7.3
2018-Feb-04 03:30N 26°53' W 079°59'21 8.1
2018-Feb-04 00:52N 26°31' W 080°00'3 8.3
2018-Feb-04 00:28N 26°28' W 080°00'5 8.0
2018-Feb-03 23:49N 26°23' W 080°01'3 7.7
2018-Feb-03 23:29N 26°20' W 080°01'4 7.6
2018-Feb-03 22:59N 26°16' W 080°02'4 7.5
2018-Feb-03 22:30N 26°13' W 080°02'4 7.3
2018-Feb-03 22:00N 26°09' W 080°02'4 8.0
2018-Feb-03 21:30N 26°05' W 080°03'4 8.0
2018-Feb-03 21:00N 26°01' W 080°03'4 8.1
2018-Feb-03 20:29N 25°57' W 080°03'4 7.8
2018-Feb-03 20:00N 25°53' W 080°03'11 7.6
2018-Feb-03 18:30N 25°42' W 080°03'4 8.0
2018-Feb-03 18:00N 25°38' W 080°03'4 8.0
2018-Feb-03 17:30N 25°34' W 080°02'  
Track history (hours):
 
Tides and Currents Weather Stations Pressure Air Temp Water Temp Dewpoint Dewpoint Depression Visibility Wind Speed Wind Dir Waves Ship Positions

Christine M Mcallister

Owner: MC ALLISTER TOWING & TRANSPORTATION INC, NY, NY. More information available from US FCC via Universal Licensing System and Coast Guard Vessel Documentation Center.

Last reported at 2018-Feb-08 21:00 UTC. Time now 2018-Feb-24 11:57 UTC.
Position N 25°39' W 080°02'.
Warning: this ship's position is 15 days out of date.

; draft 6.2 m.

Type: Pollution control. MMSI: 362707956.

Date/timePositionNaut miles runAvg speedWind from/ knotsBaromVisibWave heightAir tempDewpointWater temp
2018-Feb-08 21:00N 25°39' W 080°02'4 8.1
2018-Feb-08 20:30N 25°43' W 080°03'13 8.8
2018-Feb-08 19:00N 25°56' W 080°04'4 8.6
2018-Feb-08 18:30N 26°00' W 080°04'4 8.4
2018-Feb-08 18:00N 26°04' W 080°03'4 8.4
2018-Feb-08 17:30N 26°08' W 080°02'4 9.0
2018-Feb-08 17:00N 26°13' W 080°02'42 8.4
2018-Feb-08 12:00N 26°55' W 079°60'4 8.2
2018-Feb-08 11:30N 26°59' W 080°00'  
2018-Feb-04 04:48N 27°02' W 079°59'2 6.9
2018-Feb-04 04:30N 26°60' W 079°59'4 7.3
2018-Feb-04 03:56N 26°56' W 079°59'3 7.3
2018-Feb-04 03:30N 26°53' W 079°59'21 8.1
2018-Feb-04 00:52N 26°31' W 080°00'3 8.3
2018-Feb-04 00:28N 26°28' W 080°00'5 8.0
2018-Feb-03 23:49N 26°23' W 080°01'3 7.7
2018-Feb-03 23:29N 26°20' W 080°01'4 7.6
2018-Feb-03 22:59N 26°16' W 080°02'4 7.5
2018-Feb-03 22:30N 26°13' W 080°02'4 7.3
2018-Feb-03 22:00N 26°09' W 080°02'4 8.0
2018-Feb-03 21:30N 26°05' W 080°03'4 8.0
2018-Feb-03 21:00N 26°01' W 080°03'4 8.1
2018-Feb-03 20:29N 25°57' W 080°03'4 7.8
2018-Feb-03 20:00N 25°53' W 080°03'11 7.6
2018-Feb-03 18:30N 25°42' W 080°03'4 8.0
2018-Feb-03 18:00N 25°38' W 080°03'4 8.0
2018-Feb-03 17:30N 25°34' W 080°02'  

Dump ship's entire track history